sensor_id;sensor_type;location;lat;lon;timestamp;pressure;altitude;pressure_sealevel;temperature;humidity
27864;BME280;15980;51.092;13.916;2023-07-13T00:02:34;98364.34;;;20.37;59.93
27864;BME280;15980;51.092;13.916;2023-07-13T00:12:36;98367.97;;;20.34;60.31
27864;BME280;15980;51.092;13.916;2023-07-13T00:22:37;98379.47;;;20.43;60.26
27864;BME280;15980;51.092;13.916;2023-07-13T00:32:37;98377.81;;;20.49;58.57
27864;BME280;15980;51.092;13.916;2023-07-13T00:42:38;98413.75;;;20.40;59.35
27864;BME280;15980;51.092;13.916;2023-07-13T00:52:45;98454.66;;;20.50;63.64
27864;BME280;15980;51.092;13.916;2023-07-13T01:02:48;98467.06;;;19.83;72.33
27864;BME280;15980;51.092;13.916;2023-07-13T01:12:48;98462.09;;;19.42;74.71
27864;BME280;15980;51.092;13.916;2023-07-13T01:22:49;98372.81;;;19.16;76.12
27864;BME280;15980;51.092;13.916;2023-07-13T01:32:49;98390.00;;;18.89;77.67
27864;BME280;15980;51.092;13.916;2023-07-13T01:42:49;98385.34;;;18.65;79.00
27864;BME280;15980;51.092;13.916;2023-07-13T01:52:49;98397.66;;;18.32;82.54
27864;BME280;15980;51.092;13.916;2023-07-13T02:02:50;98385.34;;;18.36;85.04
27864;BME280;15980;51.092;13.916;2023-07-13T02:12:51;98379.03;;;18.32;83.94
27864;BME280;15980;51.092;13.916;2023-07-13T02:22:51;98381.41;;;18.27;83.45
27864;BME280;15980;51.092;13.916;2023-07-13T02:32:51;98392.50;;;18.19;86.58
27864;BME280;15980;51.092;13.916;2023-07-13T02:42:51;98394.09;;;18.06;87.52
27864;BME280;15980;51.092;13.916;2023-07-13T02:52:52;98405.22;;;18.10;88.72
27864;BME280;15980;51.092;13.916;2023-07-13T03:02:52;98405.59;;;18.15;86.44
27864;BME280;15980;51.092;13.916;2023-07-13T03:12:52;98405.59;;;18.15;87.07
27864;BME280;15980;51.092;13.916;2023-07-13T03:22:53;98413.13;;;18.11;87.12
27864;BME280;15980;51.092;13.916;2023-07-13T03:32:53;98411.56;;;18.03;85.05
27864;BME280;15980;51.092;13.916;2023-07-13T03:42:53;98411.56;;;18.10;84.26
27864;BME280;15980;51.092;13.916;2023-07-13T03:52:54;98428.63;;;18.30;85.54
27864;BME280;15980;51.092;13.916;2023-07-13T04:02:54;98443.25;;;18.52;83.27
27864;BME280;15980;51.092;13.916;2023-07-13T04:12:54;98450.81;;;18.55;83.54
27864;BME280;15980;51.092;13.916;2023-07-13T04:22:55;98471.41;;;18.97;80.20
27864;BME280;15980;51.092;13.916;2023-07-13T04:32:55;98478.53;;;19.01;75.86
27864;BME280;15980;51.092;13.916;2023-07-13T04:42:55;98487.59;;;19.27;76.33
27864;BME280;15980;51.092;13.916;2023-07-13T04:52:56;98477.59;;;19.54;77.91
27864;BME280;15980;51.092;13.916;2023-07-13T05:02:57;98477.03;;;19.81;77.99
27864;BME280;15980;51.092;13.916;2023-07-13T05:12:57;98501.19;;;19.98;75.90
27864;BME280;15980;51.092;13.916;2023-07-13T05:22:58;98499.75;;;20.31;74.60
27864;BME280;15980;51.092;13.916;2023-07-13T05:32:58;98484.19;;;21.19;69.99
27864;BME280;15980;51.092;13.916;2023-07-13T05:42:58;98489.44;;;21.51;70.36
27864;BME280;15980;51.092;13.916;2023-07-13T05:52:59;98499.47;;;21.45;67.51
27864;BME280;15980;51.092;13.916;2023-07-13T06:02:59;98492.97;;;20.80;68.84
27864;BME280;15980;51.092;13.916;2023-07-13T06:12:59;98487.31;;;20.91;69.32
27864;BME280;15980;51.092;13.916;2023-07-13T06:23:01;98490.97;;;21.18;69.88
27864;BME280;15980;51.092;13.916;2023-07-13T06:33:01;98498.34;;;21.39;68.03
27864;BME280;15980;51.092;13.916;2023-07-13T06:43:02;98509.59;;;21.32;64.98
27864;BME280;15980;51.092;13.916;2023-07-13T06:53:02;98520.38;;;22.48;61.27
27864;BME280;15980;51.092;13.916;2023-07-13T07:03:03;98544.84;;;23.34;52.83
27864;BME280;15980;51.092;13.916;2023-07-13T07:13:03;98551.50;;;23.44;53.83
27864;BME280;15980;51.092;13.916;2023-07-13T07:23:04;98549.75;;;23.50;53.06
27864;BME280;15980;51.092;13.916;2023-07-13T07:33:04;98551.13;;;24.37;51.00
27864;BME280;15980;51.092;13.916;2023-07-13T07:43:04;98552.88;;;24.31;47.72
27864;BME280;15980;51.092;13.916;2023-07-13T07:53:05;98561.41;;;25.09;44.74
27864;BME280;15980;51.092;13.916;2023-07-13T08:03:06;98564.88;;;24.32;44.96
27864;BME280;15980;51.092;13.916;2023-07-13T08:13:06;98562.72;;;24.39;47.26
27864;BME280;15980;51.092;13.916;2023-07-13T08:23:08;98568.75;;;24.70;46.49
27864;BME280;15980;51.092;13.916;2023-07-13T08:33:09;98559.91;;;24.39;46.87
27864;BME280;15980;51.092;13.916;2023-07-13T08:43:16;98571.50;;;24.74;44.83
27864;BME280;15980;51.092;13.916;2023-07-13T08:53:18;98570.19;;;25.40;43.17
27864;BME280;15980;51.092;13.916;2023-07-13T09:03:20;98579.91;;;25.68;40.45
27864;BME280;15980;51.092;13.916;2023-07-13T09:23:58;98596.31;;;25.70;40.39
27864;BME280;15980;51.092;13.916;2023-07-13T09:34:00;98599.69;;;26.06;41.66
27864;BME280;15980;51.092;13.916;2023-07-13T09:54:19;98622.03;;;25.07;42.56
27864;BME280;15980;51.092;13.916;2023-07-13T10:04:30;98615.25;;;24.71;42.66
27864;BME280;15980;51.092;13.916;2023-07-13T10:14:31;98627.50;;;25.59;41.73
27864;BME280;15980;51.092;13.916;2023-07-13T10:24:33;98612.69;;;26.54;40.33
27864;BME280;15980;51.092;13.916;2023-07-13T10:34:36;98624.06;;;26.76;38.47
27864;BME280;15980;51.092;13.916;2023-07-13T10:44:37;98609.84;;;27.52;38.90
27864;BME280;15980;51.092;13.916;2023-07-13T10:54:37;98608.31;;;27.39;36.09
27864;BME280;15980;51.092;13.916;2023-07-13T11:04:47;98603.06;;;28.06;36.37
27864;BME280;15980;51.092;13.916;2023-07-13T11:25:00;98590.69;;;27.13;37.32
27864;BME280;15980;51.092;13.916;2023-07-13T11:35:01;98593.59;;;27.57;36.32
27864;BME280;15980;51.092;13.916;2023-07-13T11:45:21;98606.84;;;27.00;37.08
27864;BME280;15980;51.092;13.916;2023-07-13T11:55:23;98587.00;;;26.40;37.59
27864;BME280;15980;51.092;13.916;2023-07-13T12:05:24;98594.97;;;26.28;36.75
27864;BME280;15980;51.092;13.916;2023-07-13T12:15:49;98595.63;;;26.07;38.41
27864;BME280;15980;51.092;13.916;2023-07-13T12:25:49;98584.63;;;26.25;39.58
27864;BME280;15980;51.092;13.916;2023-07-13T12:35:51;98586.38;;;25.94;39.83
27864;BME280;15980;51.092;13.916;2023-07-13T12:46:02;98579.44;;;26.11;37.79
27864;BME280;15980;51.092;13.916;2023-07-13T12:56:03;98572.69;;;26.98;36.34
27864;BME280;15980;51.092;13.916;2023-07-13T13:06:06;98574.13;;;27.15;35.59
27864;BME280;15980;51.092;13.916;2023-07-13T13:16:22;98579.22;;;26.82;36.24
27864;BME280;15980;51.092;13.916;2023-07-13T13:26:22;98563.69;;;27.37;34.95
27864;BME280;15980;51.092;13.916;2023-07-13T13:36:23;98580.88;;;27.52;33.48
27864;BME280;15980;51.092;13.916;2023-07-13T13:46:24;98573.16;;;26.83;34.39
27864;BME280;15980;51.092;13.916;2023-07-13T13:56:25;98577.66;;;26.94;33.91
27864;BME280;15980;51.092;13.916;2023-07-13T14:06:25;98565.66;;;27.84;33.76
27864;BME280;15980;51.092;13.916;2023-07-13T14:16:30;98570.78;;;26.82;34.56
27864;BME280;15980;51.092;13.916;2023-07-13T14:26:36;98553.41;;;28.09;33.17
27864;BME280;15980;51.092;13.916;2023-07-13T14:36:43;98558.34;;;27.17;34.91
27864;BME280;15980;51.092;13.916;2023-07-13T14:46:45;98551.44;;;26.71;35.05
27864;BME280;15980;51.092;13.916;2023-07-13T14:56:45;98563.84;;;26.61;36.69
27864;BME280;15980;51.092;13.916;2023-07-13T15:06:57;98572.19;;;26.52;34.82
27864;BME280;15980;51.092;13.916;2023-07-13T15:16:58;98570.94;;;26.66;34.37
27864;BME280;15980;51.092;13.916;2023-07-13T15:26:59;98571.78;;;26.24;35.22
27864;BME280;15980;51.092;13.916;2023-07-13T15:36:59;98572.72;;;26.34;34.99
27864;BME280;15980;51.092;13.916;2023-07-13T15:47:00;98583.22;;;26.46;33.88
27864;BME280;15980;51.092;13.916;2023-07-13T15:57:01;98588.88;;;26.05;34.10
27864;BME280;15980;51.092;13.916;2023-07-13T16:07:01;98573.19;;;26.58;32.26
27864;BME280;15980;51.092;13.916;2023-07-13T16:17:02;98568.34;;;26.71;31.49
27864;BME280;15980;51.092;13.916;2023-07-13T16:27:02;98585.44;;;27.02;30.93
27864;BME280;15980;51.092;13.916;2023-07-13T16:37:14;98596.69;;;26.77;31.25
27864;BME280;15980;51.092;13.916;2023-07-13T16:47:16;98609.88;;;26.92;31.52
27864;BME280;15980;51.092;13.916;2023-07-13T16:57:17;98610.31;;;26.78;31.61
27864;BME280;15980;51.092;13.916;2023-07-13T17:07:19;98623.09;;;25.74;32.02
27864;BME280;15980;51.092;13.916;2023-07-13T17:17:29;98640.19;;;25.18;33.87
27864;BME280;15980;51.092;13.916;2023-07-13T17:27:31;98648.25;;;24.48;34.83
27864;BME280;15980;51.092;13.916;2023-07-13T17:37:31;98643.56;;;25.42;33.21
27864;BME280;15980;51.092;13.916;2023-07-13T17:47:32;98649.81;;;25.66;32.88
27864;BME280;15980;51.092;13.916;2023-07-13T17:57:32;98652.53;;;25.70;33.38
27864;BME280;15980;51.092;13.916;2023-07-13T18:07:32;98667.78;;;25.52;33.78
27864;BME280;15980;51.092;13.916;2023-07-13T18:17:33;98678.59;;;24.53;35.10
27864;BME280;15980;51.092;13.916;2023-07-13T18:27:33;98686.00;;;24.23;35.35
27864;BME280;15980;51.092;13.916;2023-07-13T18:37:33;98691.78;;;23.49;36.99
27864;BME280;15980;51.092;13.916;2023-07-13T18:47:34;98690.44;;;23.11;37.73
27864;BME280;15980;51.092;13.916;2023-07-13T18:57:34;98709.81;;;22.71;38.69
27864;BME280;15980;51.092;13.916;2023-07-13T19:07:34;98737.91;;;22.30;39.84
27864;BME280;15980;51.092;13.916;2023-07-13T19:17:34;98743.13;;;21.87;40.61
27864;BME280;15980;51.092;13.916;2023-07-13T19:27:35;98759.78;;;21.56;41.63
27864;BME280;15980;51.092;13.916;2023-07-13T19:37:35;98768.09;;;21.08;43.02
27864;BME280;15980;51.092;13.916;2023-07-13T19:47:36;98787.38;;;20.78;43.74
27864;BME280;15980;51.092;13.916;2023-07-13T19:57:36;98784.72;;;20.53;44.68
27864;BME280;15980;51.092;13.916;2023-07-13T20:07:37;98807.88;;;20.25;45.85
27864;BME280;15980;51.092;13.916;2023-07-13T20:17:37;98801.94;;;19.94;47.04
27864;BME280;15980;51.092;13.916;2023-07-13T20:27:38;98811.94;;;19.63;47.57
27864;BME280;15980;51.092;13.916;2023-07-13T20:37:38;98809.50;;;19.33;49.44
27864;BME280;15980;51.092;13.916;2023-07-13T20:47:39;98818.56;;;19.05;49.90
27864;BME280;15980;51.092;13.916;2023-07-13T20:57:40;98840.75;;;18.77;50.02
27864;BME280;15980;51.092;13.916;2023-07-13T21:07:41;98853.72;;;18.55;51.31
27864;BME280;15980;51.092;13.916;2023-07-13T21:17:42;98855.59;;;18.37;52.60
27864;BME280;15980;51.092;13.916;2023-07-13T21:27:44;98878.13;;;18.21;53.50
27864;BME280;15980;51.092;13.916;2023-07-13T21:37:45;98881.16;;;18.64;51.30
27864;BME280;15980;51.092;13.916;2023-07-13T21:47:46;98896.19;;;18.59;52.13
27864;BME280;15980;51.092;13.916;2023-07-13T21:57:49;98919.53;;;18.40;53.54
27864;BME280;15980;51.092;13.916;2023-07-13T22:07:50;98932.06;;;18.20;54.99
27864;BME280;15980;51.092;13.916;2023-07-13T22:17:51;98916.84;;;18.00;56.07
27864;BME280;15980;51.092;13.916;2023-07-13T22:27:51;98928.28;;;17.91;56.82
27864;BME280;15980;51.092;13.916;2023-07-13T22:37:51;98929.38;;;17.83;57.04
27864;BME280;15980;51.092;13.916;2023-07-13T22:47:52;98932.06;;;17.76;57.49
27864;BME280;15980;51.092;13.916;2023-07-13T22:57:52;98927.56;;;17.61;59.61
27864;BME280;15980;51.092;13.916;2023-07-13T23:07:52;98929.63;;;17.34;61.50
27864;BME280;15980;51.092;13.916;2023-07-13T23:17:52;98945.22;;;17.12;62.79
27864;BME280;15980;51.092;13.916;2023-07-13T23:27:54;98935.66;;;17.06;62.79
27864;BME280;15980;51.092;13.916;2023-07-13T23:37:55;98940.28;;;17.28;61.64
27864;BME280;15980;51.092;13.916;2023-07-13T23:47:57;98937.50;;;17.28;62.93
27864;BME280;15980;51.092;13.916;2023-07-13T23:57:59;98936.66;;;17.24;63.77
